Time;durP1;ratioP1;P1;durP2;ratioP2;P2;SDS_P1;SDS_P2;PMS_P1;PMS_P2;Temp;Humidity;BMP_temperature;BMP_pressure;BME280_temperature;BME280_humidity;BME280_pressure;Samples;Min_cycle;Max_cycle;Signal;HPM_P1;HPM_P2
2023/01/07 00:01:28;;;;;;;13.48;8.07;;;6.20;99.90;;;;;;5058753;28;20061;-92
2023/01/07 00:03:55;;;;;;;13.90;8.38;;;6.20;99.90;;;;;;5059412;28;20037;-92
2023/01/07 00:06:25;;;;;;;11.57;7.45;;;6.20;99.90;;;;;;4974880;28;20438;-91
2023/01/07 00:08:53;;;;;;;11.82;7.63;;;6.20;99.90;;;;;;5059276;28;20449;-91
2023/01/07 00:11:21;;;;;;;15.40;9.57;;;6.20;99.90;;;;;;4975515;28;20061;-92
2023/01/07 00:13:49;;;;;;;14.95;8.77;;;6.20;99.90;;;;;;5059499;28;20398;-91
2023/01/07 00:16:30;;;;;;;14.10;8.63;;;6.30;99.90;;;;;;4958304;28;20049;-91
2023/01/07 00:18:58;;;;;;;13.93;8.65;;;6.30;99.90;;;;;;4957059;28;20474;-91
2023/01/07 00:21:26;;;;;;;12.35;7.50;;;6.20;99.90;;;;;;4958261;28;20034;-91
2023/01/07 00:23:57;;;;;;;9.38;6.20;;;6.20;99.90;;;;;;4958621;28;20092;-93
2023/01/07 00:26:25;;;;;;;11.68;5.00;;;6.20;99.90;;;;;;4958773;28;20042;-91
2023/01/07 00:28:52;;;;;;;9.23;5.90;;;6.20;99.90;;;;;;4974657;28;20042;-91
2023/01/07 00:31:28;;;;;;;8.98;5.68;;;6.30;99.90;;;;;;4974682;28;20031;-92
2023/01/07 00:36:28;;;;;;;11.20;6.88;;;6.20;99.90;;;;;;4974447;28;20032;-91
2023/01/07 00:38:58;;;;;;;11.05;6.80;;;6.20;99.90;;;;;;4958487;28;20500;-91
2023/01/07 00:41:24;;;;;;;9.27;6.60;;;6.20;99.90;;;;;;4958492;28;20035;-90
2023/01/07 00:43:49;;;;;;;15.52;8.15;;;6.20;99.90;;;;;;4958475;28;20027;-91
2023/01/07 00:46:16;;;;;;;11.38;8.15;;;6.10;99.90;;;;;;4974402;28;20038;-91
2023/01/07 00:48:43;;;;;;;13.13;7.07;;;6.10;99.90;;;;;;5076074;28;20045;-91
2023/01/07 00:51:10;;;;;;;12.00;7.68;;;6.10;99.90;;;;;;4958416;28;20034;-92
2023/01/07 00:53:36;;;;;;;9.50;6.47;;;6.10;99.90;;;;;;4974499;28;20111;-91
2023/01/07 00:56:02;;;;;;;9.45;6.32;;;6.10;99.90;;;;;;4958463;28;20127;-91
2023/01/07 00:58:28;;;;;;;11.52;6.60;;;6.10;99.90;;;;;;4958313;28;20038;-91
2023/01/07 01:00:57;;;;;;;12.00;7.13;;;6.10;99.90;;;;;;4958529;28;20062;-91
2023/01/07 01:03:24;;;;;;;7.53;5.20;;;6.10;99.90;;;;;;4958400;28;20035;-90
2023/01/07 01:05:50;;;;;;;9.13;5.75;;;6.10;99.90;;;;;;4958447;28;20077;-91
2023/01/07 01:08:17;;;;;;;11.73;6.15;;;6.10;99.90;;;;;;4958111;28;20119;-91
2023/01/07 01:10:44;;;;;;;10.98;6.18;;;6.10;99.90;;;;;;4958017;28;20091;-91
2023/01/07 01:13:15;;;;;;;8.38;5.75;;;6.10;99.90;;;;;;4974254;28;20031;-90
2023/01/07 01:15:46;;;;;;;7.35;5.47;;;6.10;99.90;;;;;;4958089;28;20036;-90
2023/01/07 01:18:12;;;;;;;6.75;4.03;;;6.10;99.90;;;;;;4958217;28;20034;-91
2023/01/07 01:20:38;;;;;;;5.25;3.63;;;6.10;99.90;;;;;;4957882;28;20121;-91
2023/01/07 01:23:05;;;;;;;14.55;3.67;;;6.10;99.90;;;;;;4958252;28;20492;-90
2023/01/07 01:25:31;;;;;;;4.35;2.70;;;6.20;99.90;;;;;;4974205;28;20022;-90
2023/01/07 01:28:14;;;;;;;3.90;2.65;;;6.20;99.90;;;;;;4958025;28;20065;-92
2023/01/07 01:30:40;;;;;;;6.70;3.13;;;6.20;99.90;;;;;;4958308;28;20730;-91
2023/01/07 01:33:07;;;;;;;14.93;5.90;;;6.20;99.90;;;;;;4958305;28;20023;-91
2023/01/07 01:35:33;;;;;;;6.57;3.58;;;6.20;99.90;;;;;;4957993;28;20038;-91
2023/01/07 01:37:59;;;;;;;5.10;3.45;;;6.20;99.90;;;;;;4973965;28;20026;-91
2023/01/07 01:40:29;;;;;;;8.02;5.35;;;6.30;99.90;;;;;;4958202;28;20053;-90
2023/01/07 01:42:55;;;;;;;7.35;4.50;;;6.30;99.90;;;;;;4958594;28;20042;-91
2023/01/07 01:45:21;;;;;;;5.10;3.70;;;6.20;99.90;;;;;;4958522;28;20478;-90
2023/01/07 01:47:58;;;;;;;9.57;3.60;;;6.30;99.90;;;;;;4958487;28;20030;-91
2023/01/07 01:50:30;;;;;;;4.72;3.45;;;6.30;99.90;;;;;;4958270;28;20038;-91
2023/01/07 01:53:01;;;;;;;4.55;3.30;;;6.30;99.90;;;;;;5075283;28;20031;-90
2023/01/07 01:55:37;;;;;;;6.53;3.25;;;6.30;99.90;;;;;;4958275;28;20104;-90
2023/01/07 01:58:15;;;;;;;5.85;3.00;;;6.30;99.90;;;;;;4958059;28;20041;-90
2023/01/07 02:00:41;;;;;;;4.68;2.85;;;6.30;99.90;;;;;;4957880;28;20038;-91
2023/01/07 02:03:13;;;;;;;4.72;2.72;;;6.30;99.90;;;;;;4957665;28;20027;-91
2023/01/07 02:05:40;;;;;;;3.20;2.45;;;6.30;99.90;;;;;;4957447;28;20118;-91
2023/01/07 02:08:07;;;;;;;3.85;2.53;;;6.30;99.90;;;;;;4957395;28;20432;-91
2023/01/07 02:10:35;;;;;;;7.22;2.92;;;6.30;99.90;;;;;;5074833;28;20390;-92
2023/01/07 02:13:28;;;;;;;5.75;2.75;;;6.40;99.90;;;;;;4957804;28;20084;-92
2023/01/07 02:16:26;;;;;;;7.28;2.65;;;6.40;99.90;;;;;;5058090;28;20023;-91
2023/01/07 02:19:07;;;;;;;5.25;2.95;;;6.30;99.90;;;;;;4956990;28;20127;-90
2023/01/07 02:22:06;;;;;;;4.23;2.77;;;6.30;99.90;;;;;;4973414;28;20054;-90
2023/01/07 02:24:53;;;;;;;5.25;2.85;;;6.20;99.90;;;;;;5008327;28;20043;-91
2023/01/07 02:27:26;;;;;;;6.60;2.70;;;6.30;99.90;;;;;;4956824;28;20038;-90
2023/01/07 02:30:17;;;;;;;8.25;2.65;;;6.30;99.90;;;;;;4957402;28;20035;-90
2023/01/07 02:33:12;;;;;;;4.45;2.60;;;6.20;99.90;;;;;;5057610;28;20038;-90
2023/01/07 02:35:51;;;;;;;4.30;2.97;;;6.30;99.90;;;;;;4972708;28;20079;-91
2023/01/07 02:38:41;;;;;;;3.97;2.95;;;6.30;99.90;;;;;;4956929;28;20051;-90
2023/01/07 02:41:36;;;;;;;4.13;3.13;;;6.20;99.90;;;;;;4974059;28;20506;-91
2023/01/07 02:44:34;;;;;;;5.45;4.00;;;6.20;99.90;;;;;;4960762;28;20085;-90
2023/01/07 02:47:14;;;;;;;6.75;3.70;;;6.20;99.90;;;;;;4976417;28;20490;-91
2023/01/07 02:49:40;;;;;;;6.00;4.22;;;6.20;99.90;;;;;;4976400;28;20038;-91
2023/01/07 02:52:27;;;;;;;9.20;4.28;;;6.20;99.90;;;;;;4960549;28;20034;-90
2023/01/07 02:54:59;;;;;;;8.35;4.72;;;6.20;99.90;;;;;;4960336;28;20486;-91
2023/01/07 02:57:39;;;;;;;6.55;4.45;;;6.20;99.90;;;;;;4960546;28;20031;-91
2023/01/07 03:00:17;;;;;;;9.27;4.47;;;6.20;99.90;;;;;;4959985;28;20084;-90
2023/01/07 03:03:01;;;;;;;7.28;5.07;;;6.20;99.90;;;;;;4960607;28;20039;-91
2023/01/07 03:06:01;;;;;;;10.93;5.78;;;6.20;99.90;;;;;;4960794;28;20041;-91
2023/01/07 03:08:54;;;;;;;9.98;5.72;;;6.20;99.90;;;;;;5062242;28;20035;-91
2023/01/07 03:11:23;;;;;;;9.30;5.20;;;6.20;99.90;;;;;;4960564;28;20031;-91
2023/01/07 03:14:04;;;;;;;10.65;5.65;;;6.20;99.90;;;;;;5078909;28;20037;-91
2023/01/07 03:16:37;;;;;;;7.60;5.00;;;6.20;99.90;;;;;;4960807;28;20027;-90
2023/01/07 03:19:14;;;;;;;8.65;5.45;;;6.20;99.90;;;;;;4960412;28;20043;-90
2023/01/07 03:21:40;;;;;;;9.65;5.70;;;6.20;99.90;;;;;;4960606;28;20072;-91
2023/01/07 03:24:07;;;;;;;10.50;5.88;;;6.20;99.90;;;;;;4961151;28;20034;-91
2023/01/07 03:26:42;;;;;;;7.80;5.70;;;6.20;99.90;;;;;;4976513;28;20166;-91
2023/01/07 03:29:10;;;;;;;8.38;5.53;;;6.20;99.90;;;;;;4976935;28;20030;-91
2023/01/07 03:31:45;;;;;;;8.48;6.00;;;6.20;99.90;;;;;;4960863;28;20168;-90
2023/01/07 03:34:16;;;;;;;8.43;6.15;;;6.20;99.90;;;;;;4960916;28;20034;-90
2023/01/07 03:36:52;;;;;;;9.95;6.13;;;6.20;99.90;;;;;;4961175;28;20039;-90
2023/01/07 03:39:22;;;;;;;8.25;6.05;;;6.20;99.90;;;;;;4960834;28;20037;-90
2023/01/07 03:44:35;;;;;;;11.77;5.97;;;6.20;99.90;;;;;;4976001;28;20062;-90
2023/01/07 03:47:01;;;;;;;7.18;4.88;;;6.20;99.90;;;;;;4976232;28;20053;-91
2023/01/07 03:49:27;;;;;;;10.63;4.68;;;6.20;99.90;;;;;;4959674;28;20126;-91
2023/01/07 03:51:53;;;;;;;7.43;4.68;;;6.20;99.90;;;;;;4975752;28;20055;-90
2023/01/07 03:54:22;;;;;;;14.35;4.85;;;6.20;99.90;;;;;;4959311;28;20027;-90
2023/01/07 03:56:47;;;;;;;6.28;4.40;;;6.20;99.90;;;;;;4959793;28;20529;-91
2023/01/07 03:59:13;;;;;;;8.27;5.05;;;6.20;99.90;;;;;;4959664;28;20069;-91
2023/01/07 04:01:39;;;;;;;7.45;4.55;;;6.20;99.90;;;;;;4975732;28;20031;-90
2023/01/07 04:04:05;;;;;;;6.85;4.97;;;6.20;99.90;;;;;;4959760;28;20394;-90
2023/01/07 04:06:33;;;;;;;9.02;4.97;;;6.30;99.90;;;;;;4959511;28;20034;-89
2023/01/07 04:08:59;;;;;;;7.38;4.85;;;6.20;99.90;;;;;;4959466;28;20034;-90
2023/01/07 04:11:25;;;;;;;8.95;5.80;;;6.20;99.90;;;;;;4976049;28;20023;-90
2023/01/07 04:13:56;;;;;;;8.77;5.35;;;6.20;99.90;;;;;;4943834;28;20053;-90
2023/01/07 04:16:21;;;;;;;7.95;5.55;;;6.20;99.90;;;;;;4959391;28;20073;-91
2023/01/07 04:18:47;;;;;;;7.93;5.90;;;6.20;99.90;;;;;;4958932;28;20425;-89
2023/01/07 04:21:13;;;;;;;8.73;5.55;;;6.30;99.90;;;;;;4959246;28;20212;-91
2023/01/07 04:23:39;;;;;;;9.00;5.22;;;6.30;99.90;;;;;;4959403;28;20031;-89
2023/01/07 04:26:05;;;;;;;7.20;5.40;;;6.30;99.90;;;;;;4958887;28;20532;-90
2023/01/07 04:28:31;;;;;;;6.97;5.18;;;6.20;99.90;;;;;;4958743;28;20027;-91
2023/01/07 04:31:00;;;;;;;6.60;5.05;;;6.20;99.90;;;;;;4958989;28;20030;-89
2023/01/07 04:33:26;;;;;;;7.13;4.85;;;6.20;99.90;;;;;;4958629;28;20019;-91
2023/01/07 04:35:52;;;;;;;6.13;4.72;;;6.30;99.90;;;;;;4959196;28;20129;-90
2023/01/07 04:38:18;;;;;;;9.07;5.60;;;6.30;99.90;;;;;;4959247;28;20023;-91
2023/01/07 04:41:21;;;;;;;8.15;5.72;;;6.30;99.90;;;;;;4958838;28;20025;-91
2023/01/07 04:43:47;;;;;;;8.73;5.38;;;6.30;99.90;;;;;;5060228;28;20050;-90
2023/01/07 04:46:13;;;;;;;13.18;5.78;;;6.20;99.90;;;;;;4959300;28;20026;-90
2023/01/07 04:48:39;;;;;;;8.50;5.10;;;6.20;99.90;;;;;;4959171;28;20110;-90
2023/01/07 04:51:06;;;;;;;7.68;5.38;;;6.20;99.90;;;;;;4974800;28;20027;-90
2023/01/07 04:53:32;;;;;;;8.77;5.75;;;6.20;99.90;;;;;;4958881;28;20354;-90
2023/01/07 04:55:58;;;;;;;10.52;5.63;;;6.20;99.90;;;;;;4958715;28;20023;-90
2023/01/07 04:58:24;;;;;;;11.98;5.45;;;6.30;99.90;;;;;;4974881;28;20114;-90
2023/01/07 05:00:52;;;;;;;8.80;5.68;;;6.20;99.90;;;;;;4975042;28;20023;-91
2023/01/07 05:03:18;;;;;;;9.05;5.82;;;6.20;99.90;;;;;;4958223;28;20062;-90
2023/01/07 05:05:45;;;;;;;9.57;5.80;;;6.20;99.90;;;;;;4958716;28;20505;-90
2023/01/07 05:08:11;;;;;;;7.55;5.45;;;6.20;99.90;;;;;;4974612;28;20558;-90
2023/01/07 05:10:37;;;;;;;9.32;6.15;;;6.20;99.90;;;;;;4958436;28;20031;-90
2023/01/07 05:13:04;;;;;;;7.00;5.45;;;6.20;99.90;;;;;;4974523;28;20386;-90
2023/01/07 05:15:32;;;;;;;7.85;5.80;;;6.20;99.90;;;;;;4958435;28;20038;-90
2023/01/07 05:18:35;;;;;;;8.23;5.35;;;6.20;99.90;;;;;;4974265;28;20485;-91
2023/01/07 05:21:02;;;;;;;12.20;5.55;;;6.20;99.90;;;;;;4958509;28;20098;-92
2023/01/07 05:23:28;;;;;;;9.82;5.43;;;6.20;99.90;;;;;;4958274;28;20051;-91
2023/01/07 05:25:54;;;;;;;11.95;6.03;;;6.20;99.90;;;;;;4974155;28;20069;-90
2023/01/07 05:28:20;;;;;;;6.78;5.40;;;6.20;99.90;;;;;;4958314;28;20019;-90
2023/01/07 05:30:51;;;;;;;8.25;5.95;;;6.20;99.90;;;;;;4974371;28;20038;-90
2023/01/07 05:33:17;;;;;;;9.90;6.25;;;6.20;99.90;;;;;;4957698;28;20031;-90
2023/01/07 05:35:45;;;;;;;8.57;6.30;;;6.20;99.90;;;;;;4957788;28;20030;-90
2023/01/07 05:38:11;;;;;;;7.60;6.10;;;6.20;99.90;;;;;;4957377;28;20389;-90
2023/01/07 05:40:37;;;;;;;12.18;6.57;;;6.20;99.90;;;;;;4957425;28;20109;-90
2023/01/07 05:43:02;;;;;;;10.30;7.25;;;6.20;99.90;;;;;;4957333;28;20394;-90
2023/01/07 05:45:28;;;;;;;23.02;12.80;;;6.20;99.90;;;;;;4973405;28;20046;-90
2023/01/07 05:47:54;;;;;;;15.73;9.77;;;6.20;99.90;;;;;;4973115;28;20030;-90
2023/01/07 05:50:20;;;;;;;35.40;16.50;;;6.20;99.90;;;;;;4957402;28;20061;-90
2023/01/07 05:52:45;;;;;;;25.23;11.65;;;6.20;99.90;;;;;;4957195;28;20027;-90
2023/01/07 05:55:11;;;;;;;30.27;12.75;;;6.20;99.90;;;;;;4957191;28;20055;-91
2023/01/07 05:57:36;;;;;;;54.08;21.67;;;6.20;99.90;;;;;;4957692;28;20179;-90
2023/01/07 06:00:03;;;;;;;173.80;57.20;;;6.10;99.90;;;;;;4957116;28;20042;-91
2023/01/07 06:02:37;;;;;;;172.23;61.10;;;6.20;99.90;;;;;;4973283;28;20492;-90
2023/01/07 06:05:03;;;;;;;135.23;53.97;;;6.20;99.90;;;;;;4957232;28;20120;-91
2023/01/07 06:07:29;;;;;;;71.95;31.45;;;6.20;99.90;;;;;;4973584;28;20035;-91
2023/01/07 06:09:55;;;;;;;20.63;10.73;;;6.30;99.90;;;;;;4974429;28;20041;-91
2023/01/07 06:12:20;;;;;;;14.15;7.93;;;6.20;99.90;;;;;;4957209;28;20027;-89
2023/01/07 06:14:46;;;;;;;11.18;6.90;;;6.20;99.90;;;;;;4972875;28;20462;-90
2023/01/07 06:17:12;;;;;;;9.13;6.18;;;6.20;99.90;;;;;;4956302;28;20023;-90
2023/01/07 06:19:37;;;;;;;8.00;5.20;;;6.30;99.90;;;;;;4972746;28;20035;-90
2023/01/07 06:22:03;;;;;;;17.33;11.73;;;6.10;99.90;;;;;;4974137;28;20027;-90
2023/01/07 06:24:29;;;;;;;12.80;9.15;;;6.20;99.90;;;;;;4956815;28;20031;-90
2023/01/07 06:26:54;;;;;;;11.60;7.18;;;6.20;99.90;;;;;;4956596;28;20035;-91
2023/01/07 06:29:26;;;;;;;10.27;6.53;;;6.30;99.90;;;;;;4956399;28;20096;-89
2023/01/07 06:31:58;;;;;;;8.80;5.82;;;6.30;99.90;;;;;;4972828;28;20042;-90
2023/01/07 06:34:24;;;;;;;9.00;6.18;;;6.20;99.90;;;;;;4956734;28;20031;-91
2023/01/07 06:36:49;;;;;;;8.23;5.80;;;6.20;99.90;;;;;;4956613;28;20023;-90
2023/01/07 06:39:15;;;;;;;11.18;6.50;;;6.20;99.90;;;;;;4957248;28;20031;-90
2023/01/07 06:41:40;;;;;;;9.20;6.20;;;6.20;99.90;;;;;;4956505;28;20038;-90
2023/01/07 06:44:06;;;;;;;9.50;6.47;;;6.20;99.90;;;;;;5057373;28;20038;-91
2023/01/07 06:46:32;;;;;;;7.22;5.63;;;6.10;99.90;;;;;;4956212;28;20121;-90
2023/01/07 06:48:57;;;;;;;7.72;5.38;;;6.10;99.90;;;;;;4956430;28;20035;-90
2023/01/07 06:51:23;;;;;;;9.48;6.47;;;6.10;99.90;;;;;;4956468;28;20034;-90
2023/01/07 06:53:49;;;;;;;9.57;6.18;;;6.20;99.90;;;;;;4956394;28;20389;-90
2023/01/07 06:56:15;;;;;;;7.78;6.15;;;6.10;99.90;;;;;;4955853;28;20050;-90
2023/01/07 06:58:40;;;;;;;10.18;6.60;;;6.10;99.90;;;;;;4955947;28;20073;-90
2023/01/07 07:01:07;;;;;;;10.15;7.22;;;6.10;99.90;;;;;;4956103;28;20080;-90
2023/01/07 07:03:33;;;;;;;10.52;7.75;;;6.10;99.90;;;;;;4955981;28;20079;-90
2023/01/07 07:05:59;;;;;;;11.32;7.50;;;6.10;99.90;;;;;;4955992;28;20073;-90
2023/01/07 07:08:25;;;;;;;10.38;6.82;;;6.10;99.90;;;;;;4955920;28;20027;-90
2023/01/07 07:10:51;;;;;;;11.20;7.35;;;6.10;99.90;;;;;;4956023;28;20041;-90
2023/01/07 07:13:16;;;;;;;9.15;6.45;;;6.10;99.90;;;;;;4955807;28;20031;-89
2023/01/07 07:15:42;;;;;;;11.32;7.38;;;6.10;99.90;;;;;;4955290;28;20042;-89
2023/01/07 07:18:08;;;;;;;8.90;6.85;;;6.10;99.90;;;;;;4955937;28;20037;-90
2023/01/07 07:20:34;;;;;;;11.20;7.82;;;6.00;99.90;;;;;;4956113;28;20077;-90
2023/01/07 07:23:01;;;;;;;8.75;6.68;;;6.00;99.90;;;;;;4956284;28;20034;-91
2023/01/07 07:25:27;;;;;;;7.75;5.70;;;6.10;99.90;;;;;;4956445;28;20482;-90
2023/01/07 07:27:52;;;;;;;9.77;6.10;;;6.10;99.90;;;;;;4958634;28;20038;-90
2023/01/07 07:30:18;;;;;;;6.68;5.18;;;6.10;99.90;;;;;;4959514;28;20054;-90
2023/01/07 07:32:45;;;;;;;6.97;4.60;;;6.10;99.90;;;;;;4959227;28;20038;-91
2023/01/07 07:35:11;;;;;;;6.10;4.40;;;6.20;99.90;;;;;;4959180;28;20031;-91
2023/01/07 07:37:37;;;;;;;5.07;4.05;;;6.20;99.90;;;;;;4974966;28;20034;-90
2023/01/07 07:40:05;;;;;;;5.85;3.75;;;6.20;99.90;;;;;;4958811;28;20035;-90
2023/01/07 07:42:31;;;;;;;7.32;3.92;;;6.30;99.90;;;;;;4958685;28;20042;-90
2023/01/07 07:44:58;;;;;;;5.18;4.05;;;6.30;99.90;;;;;;4959442;28;20466;-90
2023/01/07 07:47:23;;;;;;;5.65;4.32;;;6.20;99.90;;;;;;4958896;28;20041;-92
2023/01/07 07:49:50;;;;;;;8.38;4.72;;;6.30;99.90;;;;;;4958609;28;20134;-91
2023/01/07 07:52:21;;;;;;;7.18;4.60;;;6.20;99.90;;;;;;4958458;28;20031;-92
2023/01/07 07:54:47;;;;;;;7.30;4.95;;;6.30;99.90;;;;;;4958497;28;20037;-91
2023/01/07 08:00:53;;;;;;;10.40;5.53;;;6.30;99.90;;;;;;4976198;28;20041;-91
2023/01/07 08:03:19;;;;;;;9.20;5.95;;;6.30;99.90;;;;;;4958759;28;20459;-91
2023/01/07 08:05:45;;;;;;;11.07;5.95;;;6.30;99.90;;;;;;4958705;28;20445;-91
2023/01/07 08:08:13;;;;;;;9.68;5.63;;;6.30;99.90;;;;;;4959073;28;20117;-91
2023/01/07 08:10:40;;;;;;;6.72;5.28;;;6.30;99.90;;;;;;4958411;28;20042;-90
2023/01/07 08:13:06;;;;;;;7.07;5.00;;;6.30;99.90;;;;;;4958415;28;20106;-92
2023/01/07 08:15:32;;;;;;;6.78;4.68;;;6.30;99.90;;;;;;4958722;28;20070;-90
2023/01/07 08:18:04;;;;;;;8.95;5.90;;;6.30;99.90;;;;;;4958734;28;20030;-89
2023/01/07 08:20:30;;;;;;;7.55;4.93;;;6.40;99.90;;;;;;4974647;28;20077;-92
2023/01/07 08:23:00;;;;;;;8.50;6.10;;;6.40;99.90;;;;;;4958737;28;20027;-90
2023/01/07 08:25:27;;;;;;;8.05;5.75;;;6.40;99.90;;;;;;4958565;28;20172;-90
2023/01/07 08:27:54;;;;;;;7.88;5.40;;;6.40;99.90;;;;;;4958467;28;20038;-90
2023/01/07 08:30:20;;;;;;;7.30;5.05;;;6.40;99.90;;;;;;4958129;28;20030;-90
2023/01/07 08:32:47;;;;;;;5.88;4.57;;;6.40;99.90;;;;;;4958185;28;20104;-91
2023/01/07 08:35:12;;;;;;;6.63;4.57;;;6.40;99.90;;;;;;4958436;28;20031;-91
2023/01/07 08:37:38;;;;;;;6.05;4.25;;;6.40;99.90;;;;;;4958676;28;20030;-90
2023/01/07 08:40:05;;;;;;;5.88;4.18;;;6.40;99.90;;;;;;4957580;28;20070;-90
2023/01/07 08:42:31;;;;;;;5.88;3.65;;;6.50;99.90;;;;;;4958491;28;20046;-92
2023/01/07 08:44:57;;;;;;;4.68;3.58;;;6.60;99.90;;;;;;4958713;28;20027;-92
2023/01/07 08:47:26;;;;;;;6.10;3.70;;;6.60;99.90;;;;;;4958035;28;20041;-90
2023/01/07 08:49:51;;;;;;;5.97;4.25;;;6.60;99.90;;;;;;4957870;28;20035;-91
2023/01/07 08:52:17;;;;;;;5.32;3.45;;;6.60;99.90;;;;;;4957567;28;20034;-92
2023/01/07 08:54:43;;;;;;;4.65;3.88;;;6.70;99.90;;;;;;4957586;28;20027;-92
2023/01/07 08:57:08;;;;;;;5.50;4.00;;;6.70;99.90;;;;;;4958312;28;20038;-92
2023/01/07 08:59:34;;;;;;;5.47;4.28;;;6.70;99.90;;;;;;4957726;28;20484;-90
2023/01/07 09:02:00;;;;;;;6.40;4.30;;;6.70;99.90;;;;;;4957684;28;20130;-91
2023/01/07 09:04:25;;;;;;;6.22;4.53;;;6.70;99.90;;;;;;4957646;28;20062;-91
2023/01/07 09:06:51;;;;;;;6.43;4.38;;;6.60;99.90;;;;;;4957670;28;20026;-92
2023/01/07 09:09:17;;;;;;;6.90;4.72;;;6.60;99.90;;;;;;4957448;28;20099;-92
2023/01/07 09:11:42;;;;;;;6.03;4.50;;;6.70;99.90;;;;;;4957486;28;20031;-91
2023/01/07 09:14:08;;;;;;;7.32;4.60;;;6.70;99.90;;;;;;4957433;28;20027;-91
2023/01/07 09:16:34;;;;;;;6.25;4.53;;;6.70;99.90;;;;;;4957004;28;20541;-91
2023/01/07 09:18:59;;;;;;;7.95;4.85;;;6.70;99.90;;;;;;4957124;28;20039;-91
2023/01/07 09:21:25;;;;;;;7.20;4.38;;;6.60;99.90;;;;;;4957543;28;20035;-92
2023/01/07 09:23:51;;;;;;;8.57;3.88;;;6.70;99.90;;;;;;4957296;28;20038;-91
2023/01/07 09:26:16;;;;;;;7.30;4.35;;;6.70;99.90;;;;;;4957292;28;20031;-90
2023/01/07 09:28:42;;;;;;;5.88;4.28;;;6.70;99.90;;;;;;4957320;28;20441;-90
2023/01/07 09:31:08;;;;;;;11.55;5.93;;;6.80;99.90;;;;;;4956860;28;20078;-91
2023/01/07 09:33:34;;;;;;;12.52;7.10;;;6.80;99.90;;;;;;4957238;28;20035;-91
2023/01/07 09:35:59;;;;;;;12.55;8.25;;;6.80;99.90;;;;;;4957169;28;20027;-91
2023/01/07 09:38:25;;;;;;;9.43;5.93;;;6.80;99.90;;;;;;4957195;28;20455;-90
2023/01/07 09:40:52;;;;;;;6.28;4.63;;;7.00;99.90;;;;;;4957529;28;20023;-91
2023/01/07 09:43:38;;;;;;;6.80;3.83;;;6.90;99.90;;;;;;4956703;28;20095;-90
2023/01/07 09:46:07;;;;;;;6.18;4.30;;;6.90;99.90;;;;;;4956931;28;20539;-91
2023/01/07 09:48:39;;;;;;;7.05;4.15;;;6.90;99.90;;;;;;4956669;28;20070;-91
2023/01/07 09:51:13;;;;;;;8.57;3.70;;;7.00;99.90;;;;;;4956947;28;20081;-91
2023/01/07 09:53:43;;;;;;;6.38;4.32;;;7.00;99.90;;;;;;4956828;28;20031;-91
2023/01/07 09:56:28;;;;;;;5.72;3.95;;;7.00;99.90;;;;;;4956944;28;20062;-90
2023/01/07 09:58:56;;;;;;;5.18;3.63;;;7.00;99.90;;;;;;4956702;28;20035;-91
2023/01/07 10:01:29;;;;;;;7.57;4.90;;;7.00;99.90;;;;;;4956717;28;20508;-90
2023/01/07 10:04:01;;;;;;;5.38;4.20;;;7.10;99.90;;;;;;4956352;28;20042;-91
2023/01/07 10:07:09;;;;;;;8.10;4.00;;;7.10;99.90;;;;;;4956781;28;20133;-90
2023/01/07 10:09:44;;;;;;;5.38;4.03;;;7.20;99.90;;;;;;4963063;28;20039;-90
2023/01/07 10:12:38;;;;;;;5.78;4.43;;;7.10;99.90;;;;;;4956378;28;20027;-90
2023/01/07 10:15:13;;;;;;;6.18;3.90;;;7.20;99.90;;;;;;4956394;28;20053;-90
2023/01/07 10:18:12;;;;;;;6.50;4.60;;;7.30;99.90;;;;;;4956414;28;20034;-90
2023/01/07 10:21:02;;;;;;;7.25;4.30;;;7.20;99.90;;;;;;4972247;28;20097;-90
2023/01/07 10:23:39;;;;;;;7.93;5.32;;;7.20;99.90;;;;;;4956262;28;20035;-90
2023/01/07 10:26:12;;;;;;;8.77;5.97;;;7.20;99.90;;;;;;4972281;28;20417;-90
2023/01/07 10:28:49;;;;;;;8.60;6.20;;;7.20;99.90;;;;;;4956171;28;20035;-90
2023/01/07 10:31:54;;;;;;;9.60;5.53;;;7.30;99.90;;;;;;4956554;28;20461;-90
2023/01/07 10:34:27;;;;;;;9.48;5.75;;;7.20;99.90;;;;;;4956227;28;20066;-89
2023/01/07 10:37:11;;;;;;;7.43;5.57;;;7.20;99.90;;;;;;4956216;28;20194;-90
2023/01/07 10:39:51;;;;;;;8.57;5.18;;;7.20;99.90;;;;;;4956475;28;20031;-90
2023/01/07 10:42:24;;;;;;;7.28;4.43;;;7.20;99.90;;;;;;4956118;28;20035;-91
2023/01/07 10:45:23;;;;;;;6.20;4.60;;;7.20;99.90;;;;;;4955889;28;20077;-90
2023/01/07 10:48:25;;;;;;;9.05;5.65;;;7.10;99.90;;;;;;4956197;28;20452;-90
2023/01/07 10:51:14;;;;;;;4.60;4.05;;;7.10;99.90;;;;;;4956156;28;20035;-90
2023/01/07 10:53:51;;;;;;;7.35;5.00;;;7.10;99.90;;;;;;4956179;28;20039;-90
2023/01/07 10:56:44;;;;;;;5.65;4.20;;;7.10;99.90;;;;;;4956208;28;20030;-91
2023/01/07 10:59:19;;;;;;;5.88;4.35;;;7.20;99.90;;;;;;4955849;28;20041;-90
2023/01/07 11:01:59;;;;;;;7.00;3.63;;;7.30;99.90;;;;;;4956400;28;20039;-90
2023/01/07 11:04:25;;;;;;;10.02;5.75;;;7.50;99.90;;;;;;4959321;28;20053;-90
2023/01/07 11:07:05;;;;;;;7.30;3.83;;;7.70;99.90;;;;;;4959175;28;20508;-88
2023/01/07 11:09:38;;;;;;;4.95;3.20;;;7.80;99.90;;;;;;4958891;28;20604;-90
2023/01/07 11:12:19;;;;;;;3.85;2.92;;;7.80;99.90;;;;;;4959278;28;20038;-89
2023/01/07 11:14:46;;;;;;;4.18;2.95;;;7.80;99.90;;;;;;4958725;28;20030;-90
2023/01/07 11:17:21;;;;;;;4.78;2.95;;;7.90;99.90;;;;;;4974983;28;20066;-89
2023/01/07 11:19:50;;;;;;;3.95;2.92;;;7.90;99.90;;;;;;4958656;28;20043;-90
2023/01/07 11:22:29;;;;;;;4.30;3.05;;;8.00;99.90;;;;;;4958708;28;20120;-89
2023/01/07 11:24:57;;;;;;;5.40;2.67;;;7.90;99.90;;;;;;4975420;28;20038;-89
2023/01/07 11:27:26;;;;;;;3.15;2.20;;;7.70;99.90;;;;;;4959080;28;20115;-90
2023/01/07 11:30:06;;;;;;;3.47;2.53;;;7.70;99.90;;;;;;4958704;28;20045;-89
2023/01/07 11:32:39;;;;;;;4.15;2.45;;;7.70;99.90;;;;;;4958659;28;20474;-90
2023/01/07 11:35:08;;;;;;;3.47;2.10;;;7.60;99.90;;;;;;4958508;28;20367;-89
2023/01/07 11:37:37;;;;;;;2.17;1.80;;;7.70;99.90;;;;;;4958494;28;20030;-90
2023/01/07 11:40:18;;;;;;;3.88;2.00;;;7.70;99.90;;;;;;4958456;28;20077;-88
2023/01/07 11:42:56;;;;;;;4.32;2.45;;;7.80;99.90;;;;;;4958768;28;20383;-88
2023/01/07 11:45:26;;;;;;;2.50;1.80;;;7.90;99.90;;;;;;4958327;28;20104;-90
2023/01/07 11:48:12;;;;;;;2.50;1.80;;;7.90;99.90;;;;;;4958595;28;20037;-89
2023/01/07 11:50:57;;;;;;;2.30;1.73;;;7.90;99.90;;;;;;4980837;28;20120;-89
2023/01/07 11:53:40;;;;;;;3.05;2.30;;;8.00;99.90;;;;;;4958545;28;20049;-89
2023/01/07 12:00:16;;;;;;;3.58;2.50;;;7.90;99.90;;;;;;4976051;28;20627;-89
2023/01/07 12:02:42;;;;;;;3.55;2.03;;;7.90;99.90;;;;;;4958188;28;20429;-88
2023/01/07 12:05:27;;;;;;;2.90;2.03;;;8.00;99.90;;;;;;4958365;28;20029;-89
2023/01/07 12:07:56;;;;;;;4.00;2.72;;;8.10;99.90;;;;;;4958053;28;20027;-90
2023/01/07 12:10:36;;;;;;;5.40;2.00;;;8.20;99.90;;;;;;4957897;28;20035;-88
2023/01/07 12:13:14;;;;;;;3.30;2.73;;;8.00;99.90;;;;;;4957162;28;20083;-89
2023/01/07 12:15:51;;;;;;;4.13;2.45;;;8.00;99.90;;;;;;4957769;28;20027;-89
2023/01/07 12:18:24;;;;;;;2.70;2.20;;;8.00;99.90;;;;;;4958049;28;20026;-89
2023/01/07 12:20:59;;;;;;;3.58;2.60;;;8.00;99.90;;;;;;4957767;28;20097;-89
2023/01/07 12:23:59;;;;;;;4.78;3.30;;;8.00;99.90;;;;;;4959425;28;20121;-89
2023/01/07 12:27:21;;;;;;;5.13;3.25;;;7.90;99.90;;;;;;4960351;28;20034;-89
2023/01/07 12:30:22;;;;;;;4.28;2.95;;;7.90;99.90;;;;;;5001977;28;20195;-89
2023/01/07 12:33:08;;;;;;;4.28;3.08;;;7.90;99.90;;;;;;5034855;28;20064;-90
2023/01/07 12:35:44;;;;;;;3.38;2.78;;;8.00;99.90;;;;;;4991545;28;20077;-89
2023/01/07 12:38:16;;;;;;;7.03;3.28;;;8.00;99.90;;;;;;4957876;28;20549;-88
2023/01/07 12:41:01;;;;;;;5.18;3.60;;;7.90;99.90;;;;;;4957588;28;20039;-89
2023/01/07 12:44:20;;;;;;;3.92;2.92;;;7.80;99.90;;;;;;4957348;28;20039;-88
2023/01/07 12:47:06;;;;;;;3.97;2.53;;;8.00;99.90;;;;;;5001697;28;20040;-89
2023/01/07 12:50:10;;;;;;;3.63;2.25;;;8.00;99.90;;;;;;4957192;28;20039;-89
2023/01/07 12:52:51;;;;;;;5.47;2.70;;;7.90;99.90;;;;;;4979648;28;20042;-90
2023/01/07 12:55:23;;;;;;;2.60;2.20;;;7.90;99.90;;;;;;4957604;28;20500;-88
2023/01/07 12:58:14;;;;;;;4.15;3.03;;;7.90;99.90;;;;;;4957381;28;20061;-90
2023/01/07 13:00:58;;;;;;;6.28;3.20;;;7.90;99.90;;;;;;5058039;28;20039;-89
2023/01/07 13:03:31;;;;;;;5.28;2.85;;;8.00;99.90;;;;;;4957105;28;20038;-89
2023/01/07 13:06:14;;;;;;;4.65;3.25;;;8.00;99.90;;;;;;4973195;28;20125;-89
2023/01/07 13:08:45;;;;;;;3.85;2.50;;;8.10;99.90;;;;;;4956994;28;20046;-89
2023/01/07 13:14:38;;;;;;;7.38;3.75;;;8.10;99.90;;;;;;4973101;28;20073;-88
2023/01/07 13:17:24;;;;;;;5.32;2.80;;;8.20;99.90;;;;;;4957088;28;20038;-91
2023/01/07 13:20:00;;;;;;;7.68;4.45;;;8.20;99.90;;;;;;4972795;28;20045;-90
2023/01/07 13:22:44;;;;;;;4.63;3.05;;;8.30;99.90;;;;;;4956739;28;20093;-91
2023/01/07 13:25:34;;;;;;;7.00;4.30;;;8.20;99.90;;;;;;4956397;28;20037;-91
2023/01/07 13:28:31;;;;;;;17.50;7.80;;;8.10;99.90;;;;;;4956762;28;20038;-91
2023/01/07 13:31:16;;;;;;;5.82;3.83;;;8.00;99.90;;;;;;5057440;28;20038;-91
2023/01/07 13:33:56;;;;;;;5.07;3.30;;;7.70;99.90;;;;;;4956482;28;20125;-91
2023/01/07 13:36:41;;;;;;;6.40;3.08;;;7.50;99.90;;;;;;4956550;28;20031;-92
2023/01/07 13:39:15;;;;;;;10.63;4.90;;;7.40;99.90;;;;;;4956674;28;20035;-91